createdAt,value
2019-03-06T00:01:53.901Z,4.80
2019-03-06T00:04:19.899Z,4.80
2019-03-06T00:06:45.903Z,4.80
2019-03-06T00:09:11.911Z,4.90
2019-03-06T00:11:37.870Z,4.80
2019-03-06T00:14:03.836Z,4.70
2019-03-06T00:16:29.835Z,4.80
2019-03-06T00:18:55.814Z,4.70
2019-03-06T00:21:21.858Z,4.80
2019-03-06T00:23:47.801Z,4.70
2019-03-06T00:26:13.799Z,4.70
2019-03-06T00:28:40.518Z,4.70
2019-03-06T00:31:06.518Z,4.70
2019-03-06T00:33:32.492Z,4.80
2019-03-06T00:35:59.282Z,4.80
2019-03-06T00:38:25.229Z,4.70
2019-03-06T00:40:51.218Z,4.80
2019-03-06T00:43:17.180Z,4.80
2019-03-06T00:45:43.191Z,4.80
2019-03-06T00:48:09.171Z,4.80
2019-03-06T00:50:35.184Z,4.80
2019-03-06T00:53:01.210Z,4.90
2019-03-06T00:55:27.932Z,4.90
2019-03-06T00:57:54.672Z,4.90
2019-03-06T01:00:21.435Z,5.00
2019-03-06T01:02:48.123Z,5.00
2019-03-06T01:05:14.114Z,5.00
2019-03-06T01:07:40.123Z,5.00
2019-03-06T01:10:06.821Z,4.90
2019-03-06T01:12:32.797Z,4.90
2019-03-06T01:14:58.745Z,4.90
2019-03-06T01:17:24.726Z,5.00
2019-03-06T01:19:51.418Z,4.90
2019-03-06T01:22:18.179Z,5.00
2019-03-06T01:24:44.137Z,4.90
2019-03-06T01:27:10.865Z,5.10
2019-03-06T01:29:37.556Z,5.10
2019-03-06T01:32:03.536Z,5.10
2019-03-06T01:34:30.238Z,5.10
2019-03-06T01:36:56.288Z,5.10
2019-03-06T01:39:22.981Z,5.10
2019-03-06T01:41:48.967Z,5.10
2019-03-06T01:44:14.939Z,5.00
2019-03-06T01:46:40.912Z,5.00
2019-03-06T01:49:06.867Z,5.10
2019-03-06T01:51:32.896Z,5.00
2019-03-06T01:53:58.876Z,5.10
2019-03-06T01:56:24.839Z,5.10
2019-03-06T01:58:50.820Z,5.00
2019-03-06T02:01:16.808Z,5.10
2019-03-06T02:03:42.807Z,5.10
2019-03-06T02:06:08.777Z,5.10
2019-03-06T02:08:35.500Z,5.10
2019-03-06T02:11:01.471Z,5.10
2019-03-06T02:13:27.468Z,5.10
2019-03-06T02:15:54.189Z,5.20
2019-03-06T02:18:20.171Z,5.20
2019-03-06T02:20:46.131Z,5.20
2019-03-06T02:23:12.137Z,5.20
2019-03-06T02:25:38.118Z,5.30
2019-03-06T02:28:04.075Z,5.30
2019-03-06T02:30:30.071Z,5.30
2019-03-06T02:32:56.033Z,5.30
2019-03-06T02:35:22.018Z,5.30
2019-03-06T02:37:48.015Z,5.40
2019-03-06T02:40:14.761Z,5.40
2019-03-06T02:42:40.738Z,5.40
2019-03-06T02:45:06.740Z,5.50
2019-03-06T02:47:32.721Z,5.50
2019-03-06T02:49:59.458Z,5.50
2019-03-06T02:52:26.172Z,5.50
2019-03-06T02:54:52.215Z,5.50
2019-03-06T02:57:18.934Z,5.60
2019-03-06T02:59:44.948Z,5.60
2019-03-06T03:02:10.909Z,5.60
2019-03-06T03:04:37.643Z,5.70
2019-03-06T03:07:03.670Z,5.70
2019-03-06T03:09:30.429Z,5.70
2019-03-06T03:11:56.429Z,5.80
2019-03-06T03:14:23.147Z,5.80
2019-03-06T03:16:49.169Z,5.80
2019-03-06T03:19:15.146Z,5.80
2019-03-06T03:21:41.140Z,5.90
2019-03-06T03:24:07.857Z,5.90
2019-03-06T03:26:34.625Z,5.90
2019-03-06T03:29:01.339Z,5.90
2019-03-06T03:31:27.308Z,5.90
2019-03-06T03:33:53.279Z,6.00
2019-03-06T03:36:19.274Z,6.00
2019-03-06T03:38:45.233Z,6.00
2019-03-06T03:41:11.211Z,6.00
2019-03-06T03:43:37.221Z,6.00
2019-03-06T03:46:03.222Z,6.00
2019-03-06T03:48:29.929Z,6.00
2019-03-06T03:50:55.942Z,6.00
2019-03-06T03:53:21.902Z,6.00
2019-03-06T03:55:48.617Z,6.00
2019-03-06T03:58:14.598Z,6.00
2019-03-06T04:00:40.555Z,6.00
2019-03-06T04:03:06.549Z,6.00
2019-03-06T04:05:32.527Z,6.00
2019-03-06T04:07:58.527Z,5.90
2019-03-06T04:10:24.506Z,6.00
2019-03-06T04:12:51.219Z,5.90
2019-03-06T04:15:17.225Z,5.90
2019-03-06T04:17:43.241Z,5.90
2019-03-06T04:20:09.193Z,5.90
2019-03-06T04:22:35.899Z,5.90
2019-03-06T04:25:01.896Z,5.90
2019-03-06T04:27:27.871Z,5.90
2019-03-06T04:29:53.862Z,5.90
2019-03-06T04:32:20.615Z,5.90
2019-03-06T04:34:46.601Z,5.90
2019-03-06T04:37:12.567Z,5.90
2019-03-06T04:39:38.770Z,5.90
2019-03-06T04:42:05.043Z,5.80
2019-03-06T04:44:31.022Z,5.80
2019-03-06T04:46:56.982Z,5.80
2019-03-06T04:49:22.974Z,5.80
2019-03-06T04:51:48.922Z,5.90
2019-03-06T04:54:14.892Z,5.80
2019-03-06T04:56:40.881Z,5.90
2019-03-06T04:59:06.861Z,5.80
2019-03-06T05:01:32.861Z,5.80
2019-03-06T05:03:58.880Z,5.90
2019-03-06T05:06:24.865Z,5.90
2019-03-06T05:08:50.818Z,5.90
2019-03-06T05:11:16.803Z,5.90
2019-03-06T05:13:42.758Z,5.90
2019-03-06T05:16:09.492Z,5.90
2019-03-06T05:18:36.505Z,5.90
2019-03-06T05:21:02.804Z,5.90
2019-03-06T05:23:28.764Z,6.00
2019-03-06T05:25:54.760Z,6.00
2019-03-06T05:28:20.778Z,6.00
2019-03-06T05:30:47.647Z,6.00
2019-03-06T05:33:14.377Z,6.00
2019-03-06T05:35:40.365Z,6.00
2019-03-06T05:38:06.313Z,6.00
2019-03-06T05:40:32.327Z,6.10
2019-03-06T05:42:58.345Z,6.10
2019-03-06T05:45:24.329Z,6.10
2019-03-06T05:47:51.088Z,6.10
2019-03-06T05:50:17.094Z,6.10
2019-03-06T05:52:43.813Z,6.20
2019-03-06T05:55:09.776Z,6.20
2019-03-06T05:57:35.763Z,6.20
2019-03-06T06:00:01.725Z,6.20
2019-03-06T06:02:28.013Z,6.20
2019-03-06T06:04:53.796Z,6.30
2019-03-06T06:07:19.796Z,6.30
2019-03-06T06:09:45.753Z,6.30
2019-03-06T06:12:11.735Z,6.30
2019-03-06T06:14:38.455Z,6.30
2019-03-06T06:17:05.217Z,6.30
2019-03-06T06:19:31.237Z,6.30
2019-03-06T06:21:57.960Z,6.40
2019-03-06T06:24:24.724Z,6.40
2019-03-06T06:26:50.705Z,6.40
2019-03-06T06:29:16.689Z,6.40
2019-03-06T06:31:42.655Z,6.40
2019-03-06T06:34:08.636Z,6.30
2019-03-06T06:36:34.615Z,6.40
2019-03-06T06:39:00.596Z,6.40
2019-03-06T06:41:26.543Z,6.40
2019-03-06T06:43:52.533Z,6.40
2019-03-06T06:46:18.516Z,6.40
2019-03-06T06:48:45.249Z,6.50
2019-03-06T06:51:11.262Z,6.40
2019-03-06T06:53:38.023Z,6.50
2019-03-06T06:56:04.736Z,6.50
2019-03-06T06:58:31.614Z,6.50
2019-03-06T07:00:56.762Z,6.60
2019-03-06T07:03:22.757Z,6.60
2019-03-06T07:05:48.786Z,6.60
2019-03-06T07:08:14.845Z,6.70
2019-03-06T07:10:40.852Z,6.70
2019-03-06T07:13:06.817Z,6.70
2019-03-06T07:15:33.565Z,6.80
2019-03-06T07:18:00.292Z,6.80
2019-03-06T07:20:26.301Z,6.80
2019-03-06T07:22:52.285Z,6.80
2019-03-06T07:25:18.278Z,6.90
2019-03-06T07:27:44.991Z,6.90
2019-03-06T07:30:11.747Z,6.90
2019-03-06T07:32:37.717Z,6.90
2019-03-06T07:35:03.698Z,6.90
2019-03-06T07:37:29.657Z,7.00
2019-03-06T07:39:55.649Z,7.00
2019-03-06T07:42:22.337Z,7.00
2019-03-06T07:44:48.315Z,7.00
2019-03-06T07:47:15.068Z,7.10
2019-03-06T07:49:45.104Z,7.10
2019-03-06T07:52:07.822Z,7.20
2019-03-06T07:54:33.811Z,7.20
2019-03-06T07:56:59.819Z,7.20
2019-03-06T07:59:25.775Z,7.30
2019-03-06T08:01:52.511Z,7.30
2019-03-06T08:04:18.460Z,7.30
2019-03-06T08:06:44.443Z,7.40
2019-03-06T08:09:10.449Z,7.50
2019-03-06T08:11:36.428Z,7.50
2019-03-06T08:14:02.433Z,7.60
2019-03-06T08:16:28.450Z,7.60
2019-03-06T08:18:56.018Z,7.70
2019-03-06T08:21:21.217Z,7.60
2019-03-06T08:23:47.957Z,7.60
2019-03-06T08:26:13.920Z,7.60
2019-03-06T08:28:39.908Z,7.60
2019-03-06T08:31:05.915Z,7.70
2019-03-06T08:33:31.912Z,7.70
2019-03-06T08:35:57.896Z,7.80
2019-03-06T08:38:23.879Z,7.80
2019-03-06T08:40:49.893Z,7.80
2019-03-06T08:43:15.859Z,7.80
2019-03-06T08:45:41.870Z,7.90
2019-03-06T08:48:08.614Z,8.00
2019-03-06T08:50:35.361Z,8.10
2019-03-06T08:53:01.365Z,8.10
2019-03-06T08:55:27.358Z,8.20
2019-03-06T08:57:53.342Z,8.20
2019-03-06T09:00:19.329Z,8.20
2019-03-06T09:02:45.302Z,8.20
2019-03-06T09:05:11.312Z,8.30
2019-03-06T09:07:37.286Z,8.30
2019-03-06T09:10:03.314Z,8.40
2019-03-06T09:12:29.267Z,8.50
2019-03-06T09:14:55.963Z,8.50
2019-03-06T09:17:21.961Z,8.50
2019-03-06T09:19:47.932Z,8.60
2019-03-06T09:22:14.697Z,8.60
2019-03-06T09:24:41.399Z,8.60
2019-03-06T09:27:07.389Z,8.60
2019-03-06T09:29:33.361Z,8.70
2019-03-06T09:32:00.097Z,8.70
2019-03-06T09:34:28.241Z,8.80
2019-03-06T09:36:52.866Z,8.80
2019-03-06T09:39:19.606Z,8.80
2019-03-06T09:41:45.620Z,8.80
2019-03-06T09:44:11.611Z,8.90
2019-03-06T09:46:38.406Z,8.90
2019-03-06T09:49:11.533Z,8.90
2019-03-06T09:51:31.146Z,8.90
2019-03-06T09:53:57.168Z,8.90
2019-03-06T09:56:23.150Z,8.90
2019-03-06T09:58:49.158Z,8.90
2019-03-06T10:01:15.187Z,9.00
2019-03-06T10:03:41.221Z,9.00
2019-03-06T10:06:07.205Z,9.00
2019-03-06T10:08:33.230Z,9.10
2019-03-06T10:10:59.946Z,9.20
2019-03-06T10:13:25.929Z,9.10
2019-03-06T10:15:51.950Z,9.20
2019-03-06T10:18:17.896Z,9.20
2019-03-06T10:20:43.903Z,9.20
2019-03-06T10:23:09.884Z,9.20
2019-03-06T10:25:36.627Z,9.30
2019-03-06T10:28:06.283Z,9.30
2019-03-06T10:30:28.675Z,9.40
2019-03-06T10:32:54.695Z,9.40
2019-03-06T10:35:20.737Z,9.40
2019-03-06T10:37:46.764Z,9.40
2019-03-06T10:40:12.767Z,9.50
2019-03-06T10:42:39.497Z,9.60
2019-03-06T10:45:06.245Z,9.70
2019-03-06T10:47:32.234Z,9.70
2019-03-06T10:49:58.248Z,9.80
2019-03-06T10:52:24.267Z,10.00
2019-03-06T10:54:50.260Z,10.10
2019-03-06T10:57:16.299Z,10.20
2019-03-06T10:59:42.293Z,10.30
2019-03-06T11:02:08.325Z,10.30
2019-03-06T11:04:34.346Z,10.30
2019-03-06T11:07:00.374Z,10.30
2019-03-06T11:09:26.405Z,10.30
2019-03-06T11:11:52.445Z,10.30
2019-03-06T11:14:18.434Z,10.30
2019-03-06T11:16:44.447Z,10.40
2019-03-06T11:19:10.468Z,10.50
2019-03-06T11:21:36.453Z,10.50
2019-03-06T11:24:02.454Z,10.70
2019-03-06T11:26:28.465Z,10.80
2019-03-06T11:28:54.484Z,11.00
2019-03-06T11:31:20.519Z,11.10
2019-03-06T11:33:46.528Z,11.20
2019-03-06T11:36:12.545Z,11.20
2019-03-06T11:38:38.591Z,11.20
2019-03-06T11:41:05.200Z,11.40
2019-03-06T11:43:30.630Z,11.50
2019-03-06T11:45:56.890Z,11.70
2019-03-06T11:48:23.700Z,11.80
2019-03-06T11:50:49.683Z,11.80
2019-03-06T11:53:15.703Z,11.70
2019-03-06T11:55:41.678Z,11.60
2019-03-06T11:58:07.707Z,11.50
2019-03-06T12:00:33.750Z,11.60
2019-03-06T12:02:59.775Z,11.70
2019-03-06T12:05:25.759Z,11.90
2019-03-06T12:07:51.812Z,12.10
2019-03-06T12:10:17.837Z,12.20
2019-03-06T12:12:43.847Z,12.20
2019-03-06T12:15:09.830Z,12.20
2019-03-06T12:17:35.849Z,12.30
2019-03-06T12:20:08.225Z,12.20
2019-03-06T12:22:27.839Z,12.20
2019-03-06T12:24:53.867Z,12.20
2019-03-06T12:27:19.868Z,12.10
2019-03-06T12:29:46.160Z,12.10
2019-03-06T12:32:12.138Z,12.10
2019-03-06T12:34:38.156Z,12.10
2019-03-06T12:37:04.124Z,12.20
2019-03-06T12:39:30.123Z,12.20
2019-03-06T12:41:56.102Z,12.30
2019-03-06T12:44:22.131Z,12.40
2019-03-06T12:46:48.104Z,12.60
2019-03-06T12:49:14.089Z,12.70
2019-03-06T12:51:40.090Z,12.80
2019-03-06T12:54:06.821Z,13.10
2019-03-06T12:56:32.844Z,13.10
2019-03-06T12:58:58.830Z,13.20
2019-03-06T13:01:24.858Z,13.30
2019-03-06T13:03:50.833Z,13.30
2019-03-06T13:06:24.178Z,13.30
2019-03-06T13:08:50.474Z,13.40
2019-03-06T13:11:08.987Z,13.40
2019-03-06T13:13:35.757Z,13.40
2019-03-06T13:16:01.004Z,13.30
2019-03-06T13:18:27.000Z,13.40
2019-03-06T13:20:53.026Z,13.30
2019-03-06T13:23:19.029Z,13.30
2019-03-06T13:25:45.035Z,13.30
2019-03-06T13:28:11.789Z,13.30
2019-03-06T13:30:37.802Z,13.30
2019-03-06T13:33:04.575Z,13.50
2019-03-06T13:35:30.561Z,13.40
2019-03-06T13:37:57.347Z,13.50
2019-03-06T13:40:23.333Z,13.50
2019-03-06T13:42:50.115Z,13.60
2019-03-06T13:45:16.179Z,13.60
2019-03-06T13:47:42.183Z,13.60
2019-03-06T13:50:08.224Z,13.60
2019-03-06T13:52:34.263Z,13.60
2019-03-06T13:55:01.027Z,13.70
2019-03-06T13:57:27.071Z,13.70
2019-03-06T13:59:53.069Z,13.80
2019-03-06T14:02:19.807Z,13.80
2019-03-06T14:04:45.859Z,13.80
2019-03-06T14:07:11.909Z,13.70
2019-03-06T14:09:37.908Z,13.60
2019-03-06T14:12:03.948Z,13.60
2019-03-06T14:14:29.936Z,13.60
2019-03-06T14:16:56.270Z,13.40
2019-03-06T14:19:21.980Z,13.40
2019-03-06T14:21:48.742Z,13.30
2019-03-06T14:24:14.770Z,13.30
2019-03-06T14:26:40.901Z,13.30
2019-03-06T14:29:08.157Z,13.30
2019-03-06T14:31:34.239Z,13.20
2019-03-06T14:34:00.248Z,13.20
2019-03-06T14:36:26.793Z,13.10
2019-03-06T14:38:53.052Z,13.10
2019-03-06T14:41:19.061Z,13.00
2019-03-06T14:43:45.141Z,12.90
2019-03-06T14:46:16.591Z,12.80
2019-03-06T14:48:37.160Z,12.70
2019-03-06T14:51:03.190Z,12.70
2019-03-06T14:53:29.215Z,12.60
2019-03-06T14:55:55.204Z,12.50
2019-03-06T14:58:21.224Z,12.50
2019-03-06T15:00:47.930Z,12.20
2019-03-06T15:03:13.971Z,12.30
2019-03-06T15:05:46.942Z,12.10
2019-03-06T15:08:06.767Z,12.10
2019-03-06T15:10:32.771Z,12.00
2019-03-06T15:12:59.497Z,11.80
2019-03-06T15:15:25.497Z,11.80
2019-03-06T15:17:51.508Z,11.70
2019-03-06T15:20:17.510Z,11.60
2019-03-06T15:22:43.529Z,11.60
2019-03-06T15:25:09.540Z,11.60
2019-03-06T15:27:35.521Z,11.50
2019-03-06T15:30:01.542Z,11.50
2019-03-06T15:32:27.523Z,11.40
2019-03-06T15:34:53.531Z,11.40
2019-03-06T15:37:19.513Z,11.40
2019-03-06T15:39:48.567Z,11.30
2019-03-06T15:42:11.560Z,11.30
2019-03-06T15:44:37.580Z,11.30
2019-03-06T15:47:03.591Z,11.20
2019-03-06T15:49:29.749Z,11.20
2019-03-06T15:51:55.614Z,11.20
2019-03-06T15:54:28.491Z,11.10
2019-03-06T15:56:54.499Z,11.10
2019-03-06T15:59:20.530Z,11.00
2019-03-06T16:01:46.540Z,11.00
2019-03-06T16:04:13.293Z,11.00
2019-03-06T16:06:39.302Z,11.00
2019-03-06T16:09:06.047Z,11.10
2019-03-06T16:11:32.810Z,11.00
2019-03-06T16:13:58.816Z,11.00
2019-03-06T16:16:24.875Z,11.00
2019-03-06T16:18:51.508Z,11.00
2019-03-06T16:21:17.497Z,11.00
2019-03-06T16:23:43.499Z,11.00
2019-03-06T16:26:09.522Z,10.90
2019-03-06T16:28:35.516Z,10.80
2019-03-06T16:31:01.557Z,10.80
2019-03-06T16:33:27.536Z,10.80
2019-03-06T16:35:53.596Z,10.70
2019-03-06T16:38:19.588Z,10.80
2019-03-06T16:40:45.587Z,10.70
2019-03-06T16:43:12.320Z,10.60
2019-03-06T16:45:39.559Z,10.60
2019-03-06T16:48:05.109Z,10.60
2019-03-06T16:50:31.089Z,10.60
2019-03-06T16:52:57.138Z,10.50
2019-03-06T16:55:23.874Z,10.50
2019-03-06T16:57:50.637Z,10.40
2019-03-06T17:00:16.620Z,10.40
2019-03-06T17:02:42.654Z,10.40
2019-03-06T17:05:09.391Z,10.40
2019-03-06T17:07:35.402Z,10.40
2019-03-06T17:10:01.394Z,10.50
2019-03-06T17:12:27.431Z,10.50
2019-03-06T17:14:53.444Z,10.60
2019-03-06T17:17:19.464Z,10.60
2019-03-06T17:19:45.434Z,10.60
2019-03-06T17:22:11.434Z,10.60
2019-03-06T17:24:37.409Z,10.60
2019-03-06T17:27:03.430Z,10.60
2019-03-06T17:29:29.415Z,10.60
2019-03-06T17:31:55.476Z,10.70
2019-03-06T17:34:21.465Z,10.70
2019-03-06T17:36:47.488Z,10.70
2019-03-06T17:39:13.489Z,10.70
2019-03-06T17:41:39.516Z,10.70
2019-03-06T17:44:05.543Z,10.70
2019-03-06T17:46:31.529Z,10.70
2019-03-06T17:48:57.572Z,10.70
2019-03-06T17:51:23.753Z,10.70
2019-03-06T17:53:50.528Z,10.70
2019-03-06T17:56:16.520Z,10.70
2019-03-06T17:58:43.292Z,10.70
2019-03-06T18:01:09.299Z,10.70
2019-03-06T18:03:35.310Z,10.80
2019-03-06T18:06:02.071Z,10.80
2019-03-06T18:08:28.109Z,10.70
2019-03-06T18:10:54.175Z,10.70
2019-03-06T18:13:20.210Z,10.70
2019-03-06T18:15:46.956Z,10.70
2019-03-06T18:18:13.746Z,10.60
2019-03-06T18:20:39.757Z,10.60
2019-03-06T18:23:05.768Z,10.60
2019-03-06T18:25:31.808Z,10.60
2019-03-06T18:27:57.833Z,10.60
2019-03-06T18:30:23.866Z,10.60
2019-03-06T18:32:49.859Z,10.60
2019-03-06T18:35:15.874Z,10.60
2019-03-06T18:37:42.614Z,10.50
2019-03-06T18:40:09.366Z,10.50
2019-03-06T18:42:36.081Z,10.50
2019-03-06T18:45:02.107Z,10.50
2019-03-06T18:47:28.861Z,10.50
2019-03-06T18:49:54.894Z,10.50
2019-03-06T18:52:20.900Z,10.50
2019-03-06T18:54:47.654Z,10.40
2019-03-06T18:57:14.381Z,10.40
2019-03-06T18:59:41.179Z,10.40
2019-03-06T19:02:07.160Z,10.40
2019-03-06T19:04:33.898Z,10.30
2019-03-06T19:07:00.657Z,10.30
2019-03-06T19:09:26.674Z,10.30
2019-03-06T19:11:52.682Z,10.40
2019-03-06T19:14:19.421Z,10.40
2019-03-06T19:16:46.181Z,10.50
2019-03-06T19:19:12.183Z,10.40
2019-03-06T19:21:38.940Z,10.50
2019-03-06T19:24:04.930Z,10.50
2019-03-06T19:26:30.975Z,10.50
2019-03-06T19:28:57.027Z,10.50
2019-03-06T19:31:23.109Z,10.50
2019-03-06T19:33:49.071Z,10.50
2019-03-06T19:36:15.125Z,10.60
2019-03-06T19:38:41.181Z,10.70
2019-03-06T19:41:07.959Z,10.90
2019-03-06T19:43:33.980Z,10.80
2019-03-06T19:45:59.964Z,10.90
2019-03-06T19:48:26.084Z,10.90
2019-03-06T19:50:52.105Z,10.90
2019-03-06T19:53:18.873Z,10.90
2019-03-06T19:55:44.871Z,10.90
2019-03-06T19:58:10.926Z,11.00
2019-03-06T20:00:36.922Z,11.00
2019-03-06T20:03:03.729Z,11.10
2019-03-06T20:05:29.736Z,11.00
2019-03-06T20:07:55.765Z,11.00
2019-03-06T20:10:21.801Z,11.00
2019-03-06T20:12:47.868Z,11.00
2019-03-06T20:15:14.616Z,11.00
2019-03-06T20:17:40.671Z,11.00
2019-03-06T20:20:06.645Z,11.00
2019-03-06T20:22:32.676Z,11.00
2019-03-06T20:24:58.682Z,11.00
2019-03-06T20:27:24.727Z,11.00
2019-03-06T20:29:50.781Z,11.00
2019-03-06T20:32:16.770Z,11.00
2019-03-06T20:34:42.781Z,11.00
2019-03-06T20:37:08.800Z,11.10
2019-03-06T20:39:34.830Z,11.10
2019-03-06T20:42:00.823Z,11.10
2019-03-06T20:44:26.837Z,11.00
2019-03-06T20:46:52.866Z,11.00
2019-03-06T20:49:18.906Z,11.00
2019-03-06T20:51:45.684Z,11.00
2019-03-06T20:54:12.457Z,11.00
2019-03-06T20:56:38.482Z,11.00
2019-03-06T20:59:04.518Z,10.90
2019-03-06T21:01:30.542Z,10.90
2019-03-06T21:03:56.575Z,10.80
2019-03-06T21:06:22.568Z,10.80
2019-03-06T21:08:48.598Z,10.80
2019-03-06T21:11:14.595Z,10.80
2019-03-06T21:13:41.360Z,10.70
2019-03-06T21:16:07.319Z,10.60
2019-03-06T21:18:33.367Z,10.70
2019-03-06T21:20:59.346Z,10.70
2019-03-06T21:23:25.337Z,10.80
2019-03-06T21:25:52.089Z,10.80
2019-03-06T21:28:18.065Z,10.80
2019-03-06T21:30:44.079Z,10.90
2019-03-06T21:33:10.082Z,10.90
2019-03-06T21:35:36.105Z,10.90
2019-03-06T21:38:02.113Z,10.90
2019-03-06T21:40:28.174Z,10.90
2019-03-06T21:42:54.242Z,10.90
2019-03-06T21:45:20.300Z,10.90
2019-03-06T21:47:46.373Z,10.90
2019-03-06T21:50:13.150Z,10.90
2019-03-06T21:52:39.123Z,11.00
2019-03-06T21:55:05.181Z,11.00
2019-03-06T21:57:31.915Z,10.90
2019-03-06T21:59:58.654Z,11.00
2019-03-06T22:02:25.428Z,11.00
2019-03-06T22:04:51.432Z,10.90
2019-03-06T22:07:18.176Z,11.00
2019-03-06T22:09:44.926Z,11.00
2019-03-06T22:12:10.949Z,11.00
2019-03-06T22:14:36.967Z,11.00
2019-03-06T22:17:03.708Z,11.00
2019-03-06T22:19:31.556Z,11.00
2019-03-06T22:21:55.755Z,11.00
2019-03-06T22:24:22.813Z,11.00
2019-03-06T22:26:48.931Z,11.00
2019-03-06T22:29:14.923Z,10.90
2019-03-06T22:31:40.925Z,10.90
2019-03-06T22:34:06.929Z,10.80
2019-03-06T22:36:32.913Z,10.90
2019-03-06T22:38:59.671Z,10.80
2019-03-06T22:41:25.703Z,10.80
2019-03-06T22:43:51.726Z,10.80
2019-03-06T22:46:17.722Z,10.80
2019-03-06T22:48:43.714Z,10.80
2019-03-06T22:51:09.694Z,10.70
2019-03-06T22:53:35.705Z,10.80
2019-03-06T22:56:01.687Z,10.80
2019-03-06T22:58:27.714Z,10.80
2019-03-06T23:00:53.696Z,10.80
2019-03-06T23:03:19.711Z,10.80
2019-03-06T23:05:45.702Z,10.80
2019-03-06T23:08:11.709Z,10.90
2019-03-06T23:10:37.719Z,10.80
2019-03-06T23:13:03.719Z,10.80
2019-03-06T23:15:29.733Z,10.80
2019-03-06T23:17:55.757Z,10.80
2019-03-06T23:20:21.754Z,10.80
2019-03-06T23:22:47.750Z,10.80
2019-03-06T23:25:13.773Z,10.80
2019-03-06T23:27:39.771Z,10.80
2019-03-06T23:30:05.783Z,10.80
2019-03-06T23:32:31.768Z,10.90
2019-03-06T23:34:58.534Z,10.80
2019-03-06T23:37:24.779Z,10.80
2019-03-06T23:39:50.804Z,10.80
2019-03-06T23:42:16.795Z,10.80
2019-03-06T23:44:43.540Z,10.70
2019-03-06T23:47:09.533Z,10.70
2019-03-06T23:49:37.007Z,10.80
2019-03-06T23:52:02.297Z,10.80
2019-03-06T23:54:28.356Z,10.80
2019-03-06T23:56:54.335Z,10.80
2019-03-06T23:59:20.349Z,10.80
